Time;durP1;ratioP1;P1;durP2;ratioP2;P2;SDS_P1;SDS_P2;PMS_P1;PMS_P2;Temp;Humidity;BMP_temperature;BMP_pressure;BME280_temperature;BME280_humidity;BME280_pressure;Samples;Min_cycle;Max_cycle;Signal;HPM_P1;HPM_P2
2023/11/02 00:02:04;;;;;;;2.67;2.20;;;;;;;22.17;64.96;96118.66;5015622;28;20210;-31
2023/11/02 00:04:31;;;;;;;3.13;2.40;;;;;;;22.17;64.75;96110.97;5012132;28;20278;-27
2023/11/02 00:06:58;;;;;;;2.17;1.97;;;;;;;22.18;64.76;96106.72;5015880;28;20660;-27
2023/11/02 00:09:35;;;;;;;3.40;2.30;;;;;;;22.17;64.78;96095.63;5021337;28;20688;-26
2023/11/02 00:12:11;;;;;;;2.90;2.23;;;;;;;22.18;64.60;96078.59;5011453;28;20206;-27
2023/11/02 00:14:43;;;;;;;2.80;2.27;;;;;;;22.18;64.79;96070.91;5019664;28;20221;-26
2023/11/02 00:17:28;;;;;;;3.50;2.17;;;;;;;22.20;64.80;96074.34;4997309;28;20644;-27
2023/11/02 00:19:55;;;;;;;4.23;2.93;;;;;;;22.19;64.92;96064.94;5015494;28;20201;-26
2023/11/02 00:22:21;;;;;;;2.63;2.23;;;;;;;22.18;64.92;96061.53;5013343;28;20248;-31
2023/11/02 00:24:51;;;;;;;2.80;2.50;;;;;;;22.18;64.86;96063.22;4999421;28;20248;-27
2023/11/02 00:27:18;;;;;;;2.83;2.47;;;;;;;22.19;64.89;96072.59;5018978;28;20222;-30
2023/11/02 00:29:44;;;;;;;3.67;2.47;;;;;;;22.18;64.81;96058.13;5017102;28;20206;-26
2023/11/02 00:32:11;;;;;;;3.53;2.37;;;;;;;22.18;65.06;96053.84;5012796;28;20206;-26
2023/11/02 00:34:39;;;;;;;2.83;2.43;;;;;;;22.17;65.05;96048.75;5014717;28;20252;-26
2023/11/02 00:37:06;;;;;;;4.07;2.30;;;;;;;22.18;64.92;96047.88;5011852;28;20222;-28
2023/11/02 00:39:33;;;;;;;2.97;2.30;;;;;;;22.17;65.03;96054.69;5012912;28;20194;-27
2023/11/02 00:41:59;;;;;;;3.30;2.00;;;;;;;22.17;64.88;96049.56;5018628;28;20265;-26
2023/11/02 00:44:26;;;;;;;2.27;2.07;;;;;;;22.14;65.02;96041.06;5013886;28;20194;-39
2023/11/02 00:46:53;;;;;;;2.33;2.00;;;;;;;22.16;65.12;96035.09;5008717;28;20229;-28
2023/11/02 00:49:22;;;;;;;3.07;2.40;;;;;;;22.16;64.86;96031.66;5012391;28;20260;-27
2023/11/02 00:51:55;;;;;;;2.87;2.27;;;;;;;22.16;64.84;96031.66;5011950;28;20297;-28
2023/11/02 00:54:36;;;;;;;2.23;2.03;;;;;;;22.15;64.75;96025.72;5012046;28;20230;-26
2023/11/02 00:57:04;;;;;;;2.40;1.97;;;;;;;22.16;64.70;96029.09;5020122;28;20299;-28
2023/11/02 00:59:32;;;;;;;3.30;2.37;;;;;;;22.16;65.09;96034.22;5015621;28;20260;-28
2023/11/02 01:01:58;;;;;;;2.93;2.47;;;;;;;22.17;65.33;96039.34;5015379;28;20252;-26
2023/11/02 01:04:40;;;;;;;3.43;2.50;;;;;;;22.16;65.24;96031.66;5013534;28;20198;-26
2023/11/02 01:07:06;;;;;;;3.07;2.00;;;;;;;22.16;65.24;96022.28;5016471;28;20308;-26
2023/11/02 01:09:49;;;;;;;3.20;2.47;;;;;;;22.16;65.24;96018.88;5015183;28;20289;-26
2023/11/02 01:12:31;;;;;;;2.50;2.27;;;;;;;22.16;65.12;96016.31;5015782;28;20611;-27
2023/11/02 01:14:58;;;;;;;3.07;2.20;;;;;;;22.15;65.22;96009.50;5010250;28;20229;-26
2023/11/02 01:17:32;;;;;;;2.90;2.13;;;;;;;22.15;65.07;95999.25;5015520;28;20638;-26
2023/11/02 01:20:11;;;;;;;2.90;2.43;;;;;;;22.15;65.21;95991.56;5011268;28;20221;-28
2023/11/02 01:22:58;;;;;;;3.50;2.17;;;;;;;22.15;65.21;95987.31;5016751;28;20293;-27
2023/11/02 01:25:27;;;;;;;2.53;1.90;;;;;;;22.15;65.16;95981.34;5012974;28;20202;-26
2023/11/02 01:28:03;;;;;;;2.87;2.50;;;;;;;22.14;65.14;95962.56;5014795;28;20199;-27
2023/11/02 01:30:53;;;;;;;2.43;2.10;;;;;;;22.14;65.09;95962.56;5011203;28;20206;-26
2023/11/02 01:33:36;;;;;;;3.17;2.13;;;;;;;22.14;65.04;95944.66;4994671;28;20254;-26
2023/11/02 01:36:06;;;;;;;2.10;1.90;;;;;;;22.13;65.02;95942.97;5012780;28;20749;-31
2023/11/02 01:38:34;;;;;;;2.83;2.20;;;;;;;22.15;65.01;95945.53;5011822;28;20261;-28
2023/11/02 01:41:02;;;;;;;3.70;2.43;;;;;;;22.15;65.25;95940.41;5012344;28;20673;-26
2023/11/02 01:43:28;;;;;;;2.67;2.17;;;;;;;22.15;65.35;95935.28;5012502;28;20194;-26
2023/11/02 01:45:56;;;;;;;3.03;2.13;;;;;;;22.12;65.29;95927.59;5012519;28;20234;-28
2023/11/02 01:48:27;;;;;;;3.27;2.10;;;;;;;22.16;65.23;95929.31;5012497;28;20261;-26
2023/11/02 01:51:08;;;;;;;3.17;2.53;;;;;;;22.15;65.24;95920.81;4994700;28;20209;-26
2023/11/02 01:53:51;;;;;;;2.93;2.10;;;;;;;22.12;65.19;95917.38;5015001;28;20228;-26
2023/11/02 01:56:24;;;;;;;2.60;2.20;;;;;;;22.14;65.23;95911.41;5010394;28;20226;-38
2023/11/02 01:59:16;;;;;;;2.20;1.90;;;;;;;22.14;65.23;95908.84;5011981;28;20198;-26
2023/11/02 02:01:54;;;;;;;2.13;1.90;;;;;;;22.12;65.10;95890.09;4977088;28;20199;-26
2023/11/02 02:04:54;;;;;;;3.17;2.20;;;;;;;22.15;65.26;95884.13;5010269;28;20252;-26
2023/11/02 02:07:32;;;;;;;2.23;1.97;;;;;;;22.14;65.31;95873.03;4987244;28;20222;-27
2023/11/02 02:10:14;;;;;;;2.07;1.87;;;;;;;22.14;65.16;95872.19;5015070;28;20200;-26
2023/11/02 02:13:10;;;;;;;2.20;2.00;;;;;;;22.14;65.26;95879.88;5012852;28;20217;-29
2023/11/02 02:16:10;;;;;;;2.50;1.83;;;;;;;22.14;65.14;95857.66;5007464;28;20265;-29
2023/11/02 02:18:43;;;;;;;2.20;2.00;;;;;;;22.15;65.09;95849.16;5012700;28;20199;-30
2023/11/02 02:21:34;;;;;;;2.30;2.10;;;;;;;22.14;65.22;95844.88;5018209;28;20215;-26
2023/11/02 02:24:07;;;;;;;2.47;2.10;;;;;;;22.15;65.48;95841.50;5014840;28;20809;-29
2023/11/02 02:26:40;;;;;;;2.57;2.10;;;;;;;22.15;65.41;95815.91;4987180;28;20605;-26
2023/11/02 02:29:44;;;;;;;3.00;2.00;;;;;;;22.15;65.34;95815.91;5005043;28;20206;-27
2023/11/02 02:32:28;;;;;;;2.57;2.30;;;;;;;22.14;65.38;95798.81;5014754;28;20256;-26
2023/11/02 02:35:15;;;;;;;2.77;2.20;;;;;;;22.15;65.43;95812.47;5012496;28;20226;-28
2023/11/02 02:38:05;;;;;;;2.17;1.97;;;;;;;22.12;65.32;95808.22;5006685;28;20712;-26
2023/11/02 02:40:37;;;;;;;2.23;2.03;;;;;;;22.14;65.29;95816.75;5011577;28;20202;-26
2023/11/02 02:43:04;;;;;;;2.20;1.90;;;;;;;22.14;65.27;95816.75;5011048;28;20297;-29
2023/11/02 02:45:33;;;;;;;2.20;2.00;;;;;;;22.14;65.21;95814.19;5013490;28;20615;-26
2023/11/02 02:48:00;;;;;;;2.53;1.93;;;;;;;22.14;65.33;95805.69;5014139;28;20583;-30
2023/11/02 02:50:29;;;;;;;3.53;2.30;;;;;;;22.14;65.17;95809.06;5012386;28;20202;-26
2023/11/02 02:52:56;;;;;;;2.30;1.83;;;;;;;22.14;65.02;95813.34;5016142;28;20710;-26
2023/11/02 02:55:23;;;;;;;2.50;2.10;;;;;;;22.14;65.22;95815.91;5019567;28;20261;-26
2023/11/02 02:57:50;;;;;;;2.60;2.20;;;;;;;22.12;65.10;95810.78;5014498;28;20700;-28
2023/11/02 03:00:17;;;;;;;1.93;1.80;;;;;;;22.15;64.83;95807.38;5003481;28;20664;-26
2023/11/02 03:02:44;;;;;;;2.50;1.97;;;;;;;22.16;65.17;95807.38;5015899;28;20202;-28
2023/11/02 03:05:10;;;;;;;2.33;2.10;;;;;;;22.15;65.43;95800.56;5011965;28;20201;-28
2023/11/02 03:07:37;;;;;;;3.00;2.03;;;;;;;22.15;65.26;95798.00;5021871;28;20221;-26
2023/11/02 03:10:06;;;;;;;2.30;2.10;;;;;;;22.17;65.46;95792.88;5012965;28;20637;-26
2023/11/02 03:12:34;;;;;;;2.73;2.37;;;;;;;22.17;65.32;95780.09;5020382;28;20281;-28
2023/11/02 03:15:07;;;;;;;2.30;2.10;;;;;;;22.17;65.36;95777.53;5015677;28;20226;-26
2023/11/02 03:17:59;;;;;;;3.00;1.90;;;;;;;22.14;65.41;95772.41;5025091;28;20226;-26
2023/11/02 03:20:25;;;;;;;2.33;2.13;;;;;;;22.15;65.34;95774.97;5007750;28;20677;-27
2023/11/02 03:22:53;;;;;;;2.40;2.20;;;;;;;22.14;65.33;95764.75;5000713;28;20199;-26
2023/11/02 03:25:32;;;;;;;2.13;1.93;;;;;;;22.16;65.27;95771.56;4993333;28;20231;-26
2023/11/02 03:28:07;;;;;;;2.10;1.90;;;;;;;22.16;65.31;95768.13;5017221;28;20675;-26
2023/11/02 03:30:52;;;;;;;2.10;1.90;;;;;;;22.15;65.31;95751.94;5014063;28;20292;-27
2023/11/02 03:33:43;;;;;;;2.10;1.90;;;;;;;22.15;65.16;95754.50;5017141;28;20229;-28
2023/11/02 03:36:30;;;;;;;2.20;2.00;;;;;;;22.14;65.06;95736.59;5006158;28;20664;-27
2023/11/02 03:39:09;;;;;;;2.30;2.10;;;;;;;22.16;64.99;95732.31;4997627;28;20281;-26
2023/11/02 03:41:52;;;;;;;2.00;1.80;;;;;;;22.16;65.00;95720.38;5013955;28;20205;-26
2023/11/02 03:44:34;;;;;;;2.33;2.13;;;;;;;22.16;65.02;95720.38;5018266;28;20199;-26
2023/11/02 03:47:21;;;;;;;2.13;1.80;;;;;;;22.15;65.43;95705.03;4996829;28;20230;-28
2023/11/02 03:49:50;;;;;;;2.10;1.90;;;;;;;22.13;65.44;95683.72;5015159;28;20230;-26
2023/11/02 03:52:36;;;;;;;2.27;1.97;;;;;;;22.17;65.21;95700.78;5012082;28;20260;-26
2023/11/02 03:55:31;;;;;;;2.17;1.97;;;;;;;22.17;65.20;95687.97;5015039;28;20214;-26
2023/11/02 03:58:08;;;;;;;2.00;1.80;;;;;;;22.17;65.36;95677.75;5012112;28;20202;-32
2023/11/02 04:00:40;;;;;;;2.27;2.07;;;;;;;22.17;65.21;95673.47;5015564;28;20202;-29
2023/11/02 04:03:07;;;;;;;1.90;1.80;;;;;;;22.17;65.29;95667.50;5011728;28;20721;-28
2023/11/02 04:05:37;;;;;;;1.97;1.80;;;;;;;22.16;65.13;95646.19;5013523;28;20194;-26
2023/11/02 04:08:09;;;;;;;1.90;1.80;;;;;;;22.17;65.20;95636.81;5018438;28;20230;-26
2023/11/02 04:10:36;;;;;;;2.93;2.10;;;;;;;22.16;65.26;95619.75;5013353;28;20256;-26
2023/11/02 04:13:07;;;;;;;1.70;1.60;;;;;;;22.16;65.17;95604.38;5017424;28;20244;-27
2023/11/02 04:15:33;;;;;;;2.07;1.87;;;;;;;22.16;65.22;95589.03;5021122;28;20568;-27
2023/11/02 04:18:00;;;;;;;1.70;1.60;;;;;;;22.16;65.18;95571.13;5011662;28;20666;-26
2023/11/02 04:20:27;;;;;;;2.10;1.90;;;;;;;22.16;65.12;95564.31;5020237;28;20318;-26
2023/11/02 04:22:53;;;;;;;1.77;1.63;;;;;;;22.16;64.96;95554.09;5012986;28;20198;-26
2023/11/02 04:25:20;;;;;;;2.13;1.80;;;;;;;22.14;64.67;95554.97;5012859;28;20260;-26
2023/11/02 04:27:46;;;;;;;1.90;1.80;;;;;;;22.17;65.32;95555.78;4995573;28;20221;-30
2023/11/02 04:30:15;;;;;;;1.83;1.73;;;;;;;22.15;64.99;95547.28;5006229;28;20205;-26
2023/11/02 04:32:42;;;;;;;2.50;1.90;;;;;;;22.15;65.10;95541.31;5012367;28;20202;-28
2023/11/02 04:35:10;;;;;;;2.00;1.80;;;;;;;22.16;65.11;95538.75;5011530;28;20582;-27
2023/11/02 04:37:37;;;;;;;1.97;1.77;;;;;;;22.17;65.15;95532.75;5002482;28;20218;-27
2023/11/02 04:40:04;;;;;;;1.70;1.60;;;;;;;22.17;65.29;95525.06;5012996;28;20289;-26
2023/11/02 04:42:30;;;;;;;3.20;2.00;;;;;;;22.15;65.32;95503.78;5019282;28;20234;-27
2023/11/02 04:44:57;;;;;;;1.80;1.70;;;;;;;22.16;65.22;95513.16;5015661;28;20255;-26
2023/11/02 04:47:23;;;;;;;1.90;1.80;;;;;;;22.16;65.19;95502.91;4995158;28;20229;-26
2023/11/02 04:49:50;;;;;;;2.03;1.77;;;;;;;22.14;65.36;95498.69;5012653;28;20199;-31
2023/11/02 04:52:17;;;;;;;2.17;1.70;;;;;;;22.14;65.41;95512.31;4992119;28;20226;-29
2023/11/02 04:54:43;;;;;;;2.10;1.90;;;;;;;22.16;65.09;95494.38;5012880;28;20222;-26
2023/11/02 04:57:10;;;;;;;2.20;2.00;;;;;;;22.15;64.92;95479.91;5012226;28;20218;-26
2023/11/02 04:59:42;;;;;;;1.70;1.60;;;;;;;22.15;65.02;95454.31;5018957;28;20233;-29
2023/11/02 05:02:10;;;;;;;2.07;1.93;;;;;;;22.15;65.00;95450.06;5014955;28;20201;-26
2023/11/02 05:04:37;;;;;;;2.00;1.90;;;;;;;22.16;65.22;95456.88;5011721;28;20248;-27
2023/11/02 05:07:04;;;;;;;1.90;1.77;;;;;;;22.16;65.21;95463.69;5012148;28;20224;-26
2023/11/02 05:09:31;;;;;;;2.10;1.80;;;;;;;22.17;65.38;95462.84;5011117;28;20638;-26
2023/11/02 05:11:57;;;;;;;1.70;1.60;;;;;;;22.16;65.25;95458.56;5018146;28;20657;-31
2023/11/02 05:14:24;;;;;;;2.47;2.10;;;;;;;22.17;65.17;95457.72;5012325;28;20214;-26
2023/11/02 05:16:50;;;;;;;2.03;1.60;;;;;;;22.16;65.29;95464.53;5010706;28;20276;-27
2023/11/02 05:19:17;;;;;;;1.77;1.67;;;;;;;22.16;65.28;95463.69;5014196;28;20202;-26
2023/11/02 05:21:44;;;;;;;1.97;1.73;;;;;;;22.15;65.18;95454.31;5011798;28;20202;-27
2023/11/02 05:24:10;;;;;;;1.90;1.70;;;;;;;22.16;64.93;95453.47;5020877;28;20205;-27
2023/11/02 05:26:39;;;;;;;1.83;1.70;;;;;;;22.15;65.46;95441.53;5011325;28;20218;-26
2023/11/02 05:29:06;;;;;;;1.83;1.73;;;;;;;22.16;65.14;95433.00;5012050;28;20202;-29
2023/11/02 05:31:32;;;;;;;2.00;1.90;;;;;;;22.16;65.12;95426.19;5011035;28;20260;-26
2023/11/02 05:33:59;;;;;;;2.93;1.57;;;;;;;22.15;65.09;95413.41;5011443;28;20665;-26
2023/11/02 05:36:26;;;;;;;2.20;2.00;;;;;;;22.15;65.12;95409.13;5011360;28;20222;-32
2023/11/02 05:38:52;;;;;;;1.90;1.80;;;;;;;22.15;65.00;95395.47;5011337;28;20585;-27
2023/11/02 05:41:19;;;;;;;2.00;1.70;;;;;;;22.16;64.98;95397.19;5011497;28;20194;-26
2023/11/02 05:43:46;;;;;;;2.67;1.77;;;;;;;22.16;64.95;95397.19;5009258;28;20817;-26
2023/11/02 05:46:12;;;;;;;1.87;1.77;;;;;;;22.16;65.21;95421.06;5011076;28;20258;-28
2023/11/02 05:48:39;;;;;;;1.97;1.87;;;;;;;22.17;65.20;95414.25;5013678;28;20204;-27
2023/11/02 05:51:06;;;;;;;2.43;1.80;;;;;;;22.16;65.36;95398.03;5011574;28;20697;-26
2023/11/02 05:53:32;;;;;;;1.77;1.67;;;;;;;22.16;65.30;95405.72;5014131;28;20202;-30
2023/11/02 05:55:59;;;;;;;2.00;1.80;;;;;;;22.17;65.31;95414.25;5015699;28;20703;-27
2023/11/02 05:58:26;;;;;;;1.80;1.70;;;;;;;22.16;65.03;95392.91;5013626;28;20260;-26
2023/11/02 06:00:54;;;;;;;1.80;1.70;;;;;;;21.95;65.12;95362.38;5016231;28;20206;-26
2023/11/02 06:03:20;;;;;;;1.77;1.67;;;;;;;22.17;65.23;95419.34;5010559;28;20202;-28
2023/11/02 06:05:47;;;;;;;1.90;1.70;;;;;;;22.18;65.19;95428.72;5009858;28;20214;-30
2023/11/02 06:08:14;;;;;;;2.07;1.87;;;;;;;22.10;65.28;95390.41;5017149;28;20550;-26
2023/11/02 06:10:40;;;;;;;1.77;1.67;;;;;;;22.18;65.06;95378.41;5014384;28;20248;-27
2023/11/02 06:13:07;;;;;;;2.20;1.87;;;;;;;22.18;65.03;95360.50;5011710;28;20248;-26
2023/11/02 06:15:33;;;;;;;1.87;1.67;;;;;;;22.18;65.03;95365.63;5016673;28;20276;-29
2023/11/02 06:18:00;;;;;;;1.97;1.87;;;;;;;22.18;65.08;95346.84;5015344;28;20198;-27
2023/11/02 06:20:28;;;;;;;1.60;1.50;;;;;;;22.18;65.01;95336.63;5018655;28;20292;-26
2023/11/02 06:22:55;;;;;;;1.60;1.50;;;;;;;22.19;64.96;95351.97;5006499;28;20248;-26
2023/11/02 06:25:21;;;;;;;1.73;1.63;;;;;;;22.20;64.86;95350.25;5002526;28;20253;-26
2023/11/02 06:27:48;;;;;;;1.97;1.80;;;;;;;22.20;64.94;95322.94;5015228;28;20199;-28
2023/11/02 06:30:14;;;;;;;1.87;1.70;;;;;;;22.21;65.01;95319.56;5016826;28;20721;-27
2023/11/02 06:32:41;;;;;;;1.80;1.50;;;;;;;22.23;65.13;95310.13;5022853;28;20202;-26
2023/11/02 06:35:08;;;;;;;1.80;1.63;;;;;;;22.24;64.94;95301.63;5017119;28;20736;-26
2023/11/02 06:37:54;;;;;;;2.53;2.10;;;;;;;22.25;65.22;95299.88;5014178;28;20219;-27
2023/11/02 06:40:21;;;;;;;1.90;1.80;;;;;;;22.25;65.21;95271.75;5011976;28;20253;-26
2023/11/02 06:42:49;;;;;;;1.93;1.60;;;;;;;22.24;65.25;95273.47;5014352;28;20229;-26
2023/11/02 06:45:17;;;;;;;1.90;1.80;;;;;;;22.24;65.30;95258.13;5020005;28;20206;-26
2023/11/02 06:47:44;;;;;;;4.13;1.87;;;;;;;22.24;64.75;95260.69;5016168;28;20201;-26
2023/11/02 06:50:11;;;;;;;8.67;1.73;;;;;;;22.25;63.99;95261.50;5020673;28;20198;-26
2023/11/02 06:52:37;;;;;;;3.90;1.60;;;;;;;22.25;64.15;95251.28;5014319;28;20735;-27
2023/11/02 06:55:04;;;;;;;3.30;1.70;;;;;;;22.26;64.23;95240.19;5009946;28;20772;-30
2023/11/02 06:57:31;;;;;;;2.83;1.87;;;;;;;22.26;64.17;95245.31;5014633;28;20214;-26
2023/11/02 06:59:58;;;;;;;3.73;2.00;;;;;;;22.28;64.02;95235.91;5017293;28;20214;-26
2023/11/02 07:02:24;;;;;;;3.07;2.40;;;;;;;22.27;63.01;95240.19;5014337;28;20219;-26
2023/11/02 07:04:57;;;;;;;4.00;2.07;;;;;;;22.26;60.90;95243.59;5014479;28;20198;-26
2023/11/02 07:07:24;;;;;;;4.37;2.83;;;;;;;22.27;59.04;95254.69;5014815;28;20304;-28
2023/11/02 07:09:51;;;;;;;2.73;2.20;;;;;;;22.26;56.93;95256.38;5014783;28;20202;-26
2023/11/02 07:12:18;;;;;;;3.03;2.43;;;;;;;22.26;55.62;95256.38;5020431;28;20211;-31
2023/11/02 07:14:46;;;;;;;4.13;2.43;;;;;;;22.25;54.28;95236.78;5018848;28;20712;-26
2023/11/02 07:17:14;;;;;;;4.30;2.50;;;;;;;22.28;53.63;95235.91;5019114;28;20391;-30
2023/11/02 07:19:40;;;;;;;4.83;2.70;;;;;;;22.29;53.75;95238.44;5013552;28;20269;-29
2023/11/02 07:22:07;;;;;;;5.33;2.50;;;;;;;22.28;52.94;95230.78;5014466;28;20699;-26
2023/11/02 07:24:33;;;;;;;5.03;3.03;;;;;;;22.28;52.19;95230.78;5013369;28;20203;-27
2023/11/02 07:27:00;;;;;;;2.60;2.40;;;;;;;22.26;51.31;95228.25;5010459;28;20218;-26
2023/11/02 07:29:26;;;;;;;5.10;2.60;;;;;;;22.26;51.27;95228.25;5017775;28;20677;-30
2023/11/02 07:31:53;;;;;;;2.60;2.40;;;;;;;22.26;50.65;95225.69;5014949;28;20202;-27
2023/11/02 07:34:19;;;;;;;5.10;3.00;;;;;;;22.26;50.99;95209.50;5015144;28;20197;-26
2023/11/02 07:36:46;;;;;;;3.87;2.87;;;;;;;22.24;51.00;95212.06;5013612;28;20245;-26
2023/11/02 07:39:13;;;;;;;2.87;2.60;;;;;;;22.25;50.83;95223.13;5017893;28;20365;-26
2023/11/02 07:41:40;;;;;;;4.00;2.97;;;;;;;22.24;50.33;95229.97;5013415;28;20209;-26
2023/11/02 07:44:07;;;;;;;4.83;2.43;;;;;;;22.24;49.69;95227.44;5013574;28;20827;-28
2023/11/02 07:46:33;;;;;;;4.33;2.50;;;;;;;22.24;49.10;95224.00;5008975;28;20239;-28
2023/11/02 07:49:00;;;;;;;4.17;2.93;;;;;;;22.22;49.15;95221.47;5018248;28;20198;-29
2023/11/02 07:51:27;;;;;;;4.73;2.67;;;;;;;22.22;50.51;95220.59;5013541;28;20342;-26
2023/11/02 07:53:53;;;;;;;4.57;2.87;;;;;;;22.22;50.89;95223.16;5013311;28;20202;-29
2023/11/02 07:56:20;;;;;;;3.50;2.67;;;;;;;22.21;52.06;95221.47;5011790;28;20226;-27
2023/11/02 07:58:46;;;;;;;4.83;2.40;;;;;;;22.19;52.84;95216.38;5013779;28;20198;-26
2023/11/02 08:01:16;;;;;;;3.67;2.43;;;;;;;22.18;52.47;95204.47;5012816;28;20257;-26
2023/11/02 08:03:43;;;;;;;3.00;2.40;;;;;;;22.17;53.46;95197.63;5015751;28;20198;-26
2023/11/02 08:06:09;;;;;;;3.50;2.50;;;;;;;22.15;53.73;95201.06;5014650;28;20597;-26
2023/11/02 08:08:37;;;;;;;5.57;2.70;;;;;;;22.15;53.74;95185.72;5014487;28;20202;-27
2023/11/02 08:11:04;;;;;;;4.40;2.50;;;;;;;22.14;54.17;95172.09;5016464;28;20295;-35
2023/11/02 08:13:31;;;;;;;2.83;2.47;;;;;;;22.13;54.94;95180.63;5012567;28;20674;-30
2023/11/02 08:15:58;;;;;;;2.53;2.33;;;;;;;22.12;55.38;95186.63;5015179;28;20305;-26
2023/11/02 08:18:24;;;;;;;2.87;2.50;;;;;;;22.11;55.77;95182.34;5007785;28;20213;-29
2023/11/02 08:20:52;;;;;;;3.33;2.60;;;;;;;22.10;56.20;95198.56;5010083;28;20584;-26
2023/11/02 08:23:18;;;;;;;3.10;2.37;;;;;;;22.11;56.77;95209.66;5010372;28;20230;-26
2023/11/02 08:25:45;;;;;;;2.67;2.33;;;;;;;22.11;56.97;95207.91;5016161;28;20249;-26
2023/11/02 08:28:12;;;;;;;3.97;2.47;;;;;;;22.02;57.20;95181.59;5012829;28;20202;-32
2023/11/02 08:30:38;;;;;;;3.33;2.70;;;;;;;;;;4999982;28;20646;-28
2023/11/02 08:33:06;;;;;;;2.43;2.20;;;;;;;22.10;57.73;95198.56;4999198;28;20767;-32
2023/11/02 08:35:32;;;;;;;2.33;2.13;;;;;;;22.11;57.71;95155.94;4999051;28;20218;-26
2023/11/02 08:37:59;;;;;;;3.20;2.40;;;;;;;22.11;57.88;95146.53;5001771;28;20394;-36
2023/11/02 08:40:25;;;;;;;2.20;2.00;;;;;;;22.12;58.04;95188.31;4999004;28;20218;-35
2023/11/02 08:42:52;;;;;;;2.40;2.20;;;;;;;22.12;58.25;95229.25;4985047;28;20198;-33
2023/11/02 08:45:19;;;;;;;3.50;2.57;;;;;;;22.12;58.33;95209.63;5002483;28;20202;-27
2023/11/02 08:47:46;;;;;;;5.07;2.30;;;;;;;22.13;58.39;95206.22;5001435;28;20317;-28
2023/11/02 08:50:12;;;;;;;2.60;2.10;;;;;;;22.13;58.58;95190.84;4997700;28;20210;-26
2023/11/02 08:52:40;;;;;;;2.33;2.10;;;;;;;22.11;58.81;95191.75;5002252;28;20237;-29
2023/11/02 08:55:07;;;;;;;2.63;2.03;;;;;;;22.13;58.98;95198.53;5000242;28;20207;-28
2023/11/02 08:57:35;;;;;;;2.47;2.17;;;;;;;22.12;59.14;95196.00;5000600;28;20226;-30
2023/11/02 09:00:02;;;;;;;2.30;2.03;;;;;;;22.14;59.22;95207.06;4999164;28;20214;-29
2023/11/02 09:02:31;;;;;;;3.17;2.10;;;;;;;22.14;59.28;95222.41;5000640;28;20977;-35
2023/11/02 09:04:59;;;;;;;2.60;2.33;;;;;;;22.14;58.17;95204.50;4998849;28;20687;-36
2023/11/02 09:07:28;;;;;;;2.97;2.30;;;;;;;22.13;57.09;95193.41;4999620;28;20222;-26
2023/11/02 09:09:55;;;;;;;4.03;1.97;;;;;;;22.13;56.09;95187.44;5000777;28;20217;-28
2023/11/02 09:12:22;;;;;;;2.63;2.43;;;;;;;22.13;55.77;95172.97;5002048;28;20218;-35
2023/11/02 09:14:48;;;;;;;2.50;2.10;;;;;;;22.13;56.44;95182.31;4999821;28;20373;-30
2023/11/02 09:17:15;;;;;;;3.13;2.40;;;;;;;22.16;56.46;95165.25;4999322;28;20225;-28
2023/11/02 09:19:42;;;;;;;2.90;2.10;;;;;;;22.15;56.07;95158.44;5001779;28;20234;-27
2023/11/02 09:22:08;;;;;;;2.70;2.40;;;;;;;22.16;56.81;95147.34;5001902;28;20218;-38
2023/11/02 09:24:35;;;;;;;2.57;1.90;;;;;;;22.18;57.16;95137.09;5000297;28;20206;-29
2023/11/02 09:27:02;;;;;;;2.30;2.10;;;;;;;22.17;57.41;95117.50;4998662;28;20225;-32
2023/11/02 09:29:28;;;;;;;3.57;2.23;;;;;;;22.19;57.99;95095.28;4999231;28;20210;-31
2023/11/02 09:31:55;;;;;;;3.40;1.97;;;;;;;22.16;58.06;95085.09;4999079;28;20234;-29
2023/11/02 09:34:30;;;;;;;2.60;2.17;;;;;;;22.20;58.71;95104.69;4997726;28;20209;-28
2023/11/02 09:36:57;;;;;;;2.50;2.00;;;;;;;22.20;58.54;95084.22;5000738;28;20281;-31
2023/11/02 09:39:24;;;;;;;5.13;2.20;;;;;;;22.19;58.70;95068.00;5003455;28;20206;-33
2023/11/02 09:41:51;;;;;;;2.20;1.90;;;;;;;22.20;58.75;95097.00;5000282;28;20700;-27
2023/11/02 09:44:17;;;;;;;2.20;2.00;;;;;;;22.19;59.01;95137.06;5001687;28;20219;-28
2023/11/02 09:46:44;;;;;;;2.50;2.20;;;;;;;22.19;56.61;95131.09;4998397;28;20249;-31
2023/11/02 09:49:11;;;;;;;4.27;2.67;;;;;;;22.16;53.98;95152.47;4999142;28;20210;-31
2023/11/02 09:51:37;;;;;;;2.60;2.30;;;;;;;22.14;52.66;95154.19;5004931;28;20206;-26
2023/11/02 09:54:04;;;;;;;7.87;3.00;;;;;;;22.16;51.36;95147.34;4989295;28;20210;-26
2023/11/02 09:56:31;;;;;;;5.10;3.00;;;;;;;22.14;52.51;95143.13;5006015;28;20845;-27
2023/11/02 09:58:57;;;;;;;4.67;3.13;;;;;;;22.15;52.93;95137.13;4985721;28;20210;-29
2023/11/02 10:01:24;;;;;;;5.63;2.80;;;;;;;22.16;53.56;95141.38;4990568;28;20229;-27
2023/11/02 10:03:51;;;;;;;7.00;3.07;;;;;;;22.14;54.31;95113.25;5013098;28;20253;-31
2023/11/02 10:06:18;;;;;;;4.80;2.50;;;;;;;22.15;54.83;95119.22;5014178;28;20221;-26
2023/11/02 10:08:45;;;;;;;3.10;2.40;;;;;;;22.14;54.83;95118.38;5018279;28;21517;-33
2023/11/02 10:11:14;;;;;;;3.60;2.20;;;;;;;22.14;55.25;95104.75;5020985;28;20635;-26
2023/11/02 10:13:43;;;;;;;2.70;2.40;;;;;;;22.15;55.49;95109.00;5021432;28;20206;-26
2023/11/02 10:16:09;;;;;;;2.63;2.43;;;;;;;22.14;56.03;95097.91;5022114;28;20230;-27
2023/11/02 10:18:36;;;;;;;4.17;2.60;;;;;;;22.15;56.01;95088.53;5018455;28;20241;-26
2023/11/02 10:21:08;;;;;;;3.57;2.20;;;;;;;22.15;56.29;95078.28;5009764;28;20210;-26
2023/11/02 10:23:51;;;;;;;4.83;2.40;;;;;;;22.14;56.51;95054.41;5018380;28;20210;-26
2023/11/02 10:26:18;;;;;;;4.67;2.50;;;;;;;22.15;56.65;95038.22;5022875;28;20213;-26
2023/11/02 10:28:44;;;;;;;2.70;2.50;;;;;;;22.13;56.70;95046.75;5016503;28;20280;-26
2023/11/02 10:31:11;;;;;;;3.17;2.20;;;;;;;22.16;56.64;95049.28;5003400;28;20621;-26
2023/11/02 10:33:38;;;;;;;2.87;2.43;;;;;;;22.14;56.81;95051.84;5016954;28;20661;-30
2023/11/02 10:36:05;;;;;;;2.93;2.30;;;;;;;22.15;57.00;95051.00;5014170;28;20234;-26
2023/11/02 10:38:32;;;;;;;3.67;2.60;;;;;;;22.14;57.28;95030.56;5015163;28;20277;-27
2023/11/02 10:40:59;;;;;;;4.83;2.23;;;;;;;22.16;57.39;95049.28;5016110;28;20202;-26
2023/11/02 10:43:27;;;;;;;4.90;2.37;;;;;;;22.17;57.57;95025.41;5001537;28;20576;-29
2023/11/02 10:45:54;;;;;;;3.07;2.10;;;;;;;22.16;57.78;95016.88;5014366;28;20268;-26
2023/11/02 10:48:21;;;;;;;2.87;2.20;;;;;;;22.15;57.90;95038.22;5021112;28;20264;-28
2023/11/02 10:50:49;;;;;;;3.63;2.10;;;;;;;22.17;58.06;95007.50;5015347;28;20194;-26
2023/11/02 10:53:19;;;;;;;4.27;2.27;;;;;;;22.18;58.18;94973.38;5013794;28;20293;-26
2023/11/02 10:55:45;;;;;;;3.27;2.10;;;;;;;22.17;58.27;94987.06;5014544;28;20665;-26
2023/11/02 10:58:12;;;;;;;1.90;1.80;;;;;;;22.17;58.48;94969.97;4997588;28;20206;-26
2023/11/02 11:00:39;;;;;;;4.37;1.93;;;;;;;22.17;58.43;94958.91;5014529;28;20202;-30
2023/11/02 11:03:06;;;;;;;3.40;2.10;;;;;;;22.18;58.63;94964.00;5002842;28;20207;-26
2023/11/02 11:05:35;;;;;;;3.03;2.30;;;;;;;22.17;58.54;94928.22;5017561;28;20288;-28
2023/11/02 11:08:04;;;;;;;2.87;1.90;;;;;;;22.10;58.65;94891.66;5020529;28;20202;-26
2023/11/02 11:10:30;;;;;;;3.37;2.33;;;;;;;22.16;58.26;94900.94;4999580;28;20629;-27
2023/11/02 11:12:57;;;;;;;4.90;2.17;;;;;;;22.12;56.52;94872.00;5017433;28;20234;-26
2023/11/02 11:15:25;;;;;;;3.53;2.23;;;;;;;22.16;56.51;94888.13;5004704;28;20207;-26
2023/11/02 11:17:52;;;;;;;2.67;2.10;;;;;;;22.16;56.58;94901.78;5018192;28;20296;-28
2023/11/02 11:20:19;;;;;;;4.73;2.23;;;;;;;22.17;56.79;94900.09;5002576;28;20210;-26
2023/11/02 11:22:46;;;;;;;3.57;2.53;;;;;;;22.17;57.17;94898.34;5001307;28;20203;-26
2023/11/02 11:25:14;;;;;;;3.63;2.27;;;;;;;22.13;57.35;94888.19;5019053;28;20212;-26
2023/11/02 11:27:40;;;;;;;3.03;1.90;;;;;;;22.14;58.20;94872.81;5000581;28;20799;-31
2023/11/02 11:30:34;;;;;;;2.00;1.80;;;;;;;22.17;57.85;94890.66;5018329;28;20249;-27
2023/11/02 11:33:01;;;;;;;3.90;2.00;;;;;;;22.17;58.20;94903.47;5016863;28;20285;-28
2023/11/02 11:35:28;;;;;;;2.03;1.83;;;;;;;22.17;58.22;94897.53;5018861;28;21536;-26
2023/11/02 11:37:57;;;;;;;3.13;2.10;;;;;;;22.17;58.40;94916.25;5017609;28;20222;-29
2023/11/02 11:40:24;;;;;;;2.23;1.97;;;;;;;22.18;58.60;94964.00;5016604;28;20297;-29
2023/11/02 11:43:15;;;;;;;2.20;1.90;;;;;;;22.18;58.75;94964.00;5022144;28;20285;-26
2023/11/02 11:46:00;;;;;;;3.70;1.90;;;;;;;22.18;58.66;94991.28;5016856;28;20213;-27
2023/11/02 11:48:38;;;;;;;3.47;2.30;;;;;;;22.17;58.52;94980.19;5010878;28;20697;-27